Portscatho, United Kingdom
Current Conditions -  °F | °C
As of 12:50 PM on Friday 31 Oct 2014 (Local Time) from EGDR Reporting Station
Haze Haze  
Wind Chill: 63°   Ceiling: 1600
Heat Index: 63°   Visibility: 4mi
Dew Point: 57°   Wind: 20mph
Humidity: 82%   Direction: 190°S
Pressure: 29.85"   Gusts: 36mph
Location:  50.17°N, 4.97°W
Report Text: EGDR 311250Z 19017G31KT 7000 HZ FEW014 BKN016 OVC220 17/14 Q1011 WHT BECMG 5000 HZ SCT012 BKN025 GRN
Loading
Personal Weather Stations






























Interactive Weather Map New forecast layout! Learn more

10-Day Weather Forecast

Advertisements
Track Severe Weather on mobile